Time;durP1;ratioP1;P1;durP2;ratioP2;P2;SDS_P1;SDS_P2;PMS_P1;PMS_P2;Temp;Humidity;BMP_temperature;BMP_pressure;BME280_temperature;BME280_humidity;BME280_pressure;Samples;Min_cycle;Max_cycle;Signal;HPM_P1;HPM_P2
2024/01/31 00:00:08;;;;;;;36.10;11.75;;;;;;;-3.14;63.67;95589.47;5044280;28;20315;-77
2024/01/31 00:02:34;;;;;;;31.45;10.70;;;;;;;-3.14;63.69;95595.50;5045549;28;20031;-75
2024/01/31 00:05:00;;;;;;;25.63;10.55;;;;;;;-3.15;63.66;95598.31;5045194;28;20050;-74
2024/01/31 00:07:25;;;;;;;31.67;10.68;;;;;;;-3.21;63.89;95599.84;5045239;28;20112;-81
2024/01/31 00:09:51;;;;;;;31.85;10.95;;;;;;;-3.28;63.74;95599.78;5045227;28;20049;-78
2024/01/31 00:12:16;;;;;;;31.98;10.95;;;;;;;-3.32;63.97;95593.28;5044974;28;20025;-78
2024/01/31 00:14:45;;;;;;;32.72;11.48;;;;;;;-3.31;64.05;95600.13;5044805;28;20045;-75
2024/01/31 00:17:11;;;;;;;23.35;8.82;;;;;;;-3.27;64.02;95592.75;5044670;28;20031;-78
2024/01/31 00:19:36;;;;;;;23.95;9.40;;;;;;;-3.30;63.95;95595.72;5045132;28;20037;-77
2024/01/31 00:22:02;;;;;;;26.50;9.40;;;;;;;-3.31;64.06;95594.91;5045093;28;20040;-77
2024/01/31 00:24:27;;;;;;;23.33;9.15;;;;;;;-3.28;64.19;95589.34;5044841;28;20045;-77
2024/01/31 00:26:53;;;;;;;21.13;8.88;;;;;;;-3.30;64.18;95590.50;5044433;28;20029;-75
2024/01/31 00:29:18;;;;;;;27.42;10.40;;;;;;;-3.29;64.36;95592.13;5044551;28;20048;-75
2024/01/31 00:31:45;;;;;;;25.38;9.85;;;;;;;-3.32;64.74;95597.69;5044811;28;20337;-72
2024/01/31 00:34:10;;;;;;;22.85;9.65;;;;;;;-3.39;65.71;95591.63;5045010;28;20032;-81
2024/01/31 00:36:35;;;;;;;23.02;9.40;;;;;;;-3.39;65.57;95591.63;5044921;28;20029;-81
2024/01/31 00:39:01;;;;;;;32.83;11.13;;;;;;;-3.40;65.22;95589.97;5044871;28;20029;-81
2024/01/31 00:41:26;;;;;;;24.95;9.18;;;;;;;-3.47;65.60;95584.69;5044800;28;20030;-78
2024/01/31 00:43:52;;;;;;;25.70;9.70;;;;;;;-3.47;65.59;95584.69;5044475;28;20316;-77
2024/01/31 00:46:17;;;;;;;26.35;9.75;;;;;;;-3.47;65.25;95584.69;5044278;28;20052;-77
2024/01/31 00:48:43;;;;;;;18.75;9.90;;;;;;;-3.44;65.48;95586.94;5043903;28;20021;-79
2024/01/31 00:51:10;;;;;;;26.48;9.88;;;;;;;-3.48;65.58;95583.91;5044402;28;20201;-79
2024/01/31 00:53:36;;;;;;;22.60;9.52;;;;;;;-3.46;65.13;95583.69;5044601;28;20036;-79
2024/01/31 00:56:02;;;;;;;20.42;8.63;;;;;;;-3.46;64.85;95579.31;5044569;28;20215;-79
2024/01/31 00:58:27;;;;;;;22.35;7.07;;;;;;;-3.49;64.65;95571.84;5044246;28;20232;-79
2024/01/31 01:00:52;;;;;;;19.85;7.68;;;;;;;-3.50;64.27;95572.03;5043918;28;20036;-80
2024/01/31 01:03:19;;;;;;;19.50;8.05;;;;;;;-3.54;63.88;95571.59;5044277;28;20035;-80
2024/01/31 01:05:45;;;;;;;16.70;6.60;;;;;;;-3.54;63.16;95571.59;5044276;28;20029;-81
2024/01/31 01:08:10;;;;;;;21.27;8.68;;;;;;;-3.55;62.49;95564.75;5044051;28;20026;-79
2024/01/31 01:10:36;;;;;;;21.92;10.15;;;;;;;-3.57;62.64;95569.34;5044406;28;20022;-78
2024/01/31 01:13:02;;;;;;;25.30;11.13;;;;;;;-3.53;62.60;95575.81;5044248;28;20028;-75
2024/01/31 01:15:27;;;;;;;27.67;11.23;;;;;;;-3.51;62.90;95563.41;5043897;28;20100;-75
2024/01/31 01:17:53;;;;;;;25.05;10.32;;;;;;;-3.48;63.56;95563.03;5044010;28;20021;-75
2024/01/31 01:20:18;;;;;;;29.05;11.65;;;;;;;-3.46;63.79;95568.06;5043885;28;20216;-75
2024/01/31 01:22:45;;;;;;;21.58;10.05;;;;;;;-3.47;63.98;95571.66;5043731;28;20041;-75
2024/01/31 01:25:11;;;;;;;21.10;9.23;;;;;;;-3.53;63.85;95578.41;5043711;28;20347;-76
2024/01/31 01:27:36;;;;;;;29.50;10.88;;;;;;;-3.56;63.87;95570.16;5043455;28;20018;-77
2024/01/31 01:30:02;;;;;;;20.20;9.55;;;;;;;-3.73;63.92;95572.97;5043588;28;20363;-77
2024/01/31 01:32:27;;;;;;;25.90;10.35;;;;;;;-3.75;64.28;95566.31;5043730;28;20029;-77
2024/01/31 01:34:53;;;;;;;25.40;8.45;;;;;;;-3.71;64.26;95562.34;5043964;28;20029;-76
2024/01/31 01:37:18;;;;;;;19.83;8.35;;;;;;;-3.69;63.63;95555.97;5043323;28;20097;-76
2024/01/31 01:39:45;;;;;;;19.33;7.90;;;;;;;-3.68;63.48;95556.81;5043425;28;20247;-76
2024/01/31 01:42:11;;;;;;;23.45;7.72;;;;;;;-3.68;63.54;95562.00;5043446;28;20026;-78
2024/01/31 01:44:43;;;;;;;14.90;6.50;;;;;;;-3.65;63.23;95552.00;5043656;28;20320;-78
2024/01/31 01:47:09;;;;;;;19.88;7.45;;;;;;;-3.72;63.47;95555.53;5043382;28;20033;-77
2024/01/31 01:49:36;;;;;;;16.70;6.55;;;;;;;-3.74;63.42;95560.94;5043307;28;20096;-78
2024/01/31 01:52:03;;;;;;;14.95;6.85;;;;;;;-3.69;63.48;95555.16;5043709;28;20076;-78
2024/01/31 01:54:29;;;;;;;20.40;7.88;;;;;;;-3.70;63.28;95556.97;5043340;28;20132;-76
2024/01/31 01:56:54;;;;;;;16.35;7.13;;;;;;;-3.72;63.90;95553.75;5043479;28;20025;-76
2024/01/31 01:59:20;;;;;;;19.40;7.65;;;;;;;-3.70;63.82;95548.34;5043240;28;20043;-76
2024/01/31 02:01:46;;;;;;;18.55;7.45;;;;;;;-3.69;63.64;95550.75;5043120;28;20093;-76
2024/01/31 02:04:12;;;;;;;19.13;8.18;;;;;;;-3.73;63.67;95540.88;5043368;28;20101;-77
2024/01/31 02:06:38;;;;;;;18.40;7.50;;;;;;;-3.70;63.65;95545.75;5043546;28;20219;-76
2024/01/31 02:09:03;;;;;;;16.95;6.60;;;;;;;-3.71;64.01;95538.91;5043548;28;20030;-77
2024/01/31 02:11:30;;;;;;;16.30;6.82;;;;;;;-3.70;63.59;95543.16;5043216;28;20075;-77
2024/01/31 02:14:00;;;;;;;15.82;7.32;;;;;;;-3.74;63.73;95544.50;5043248;28;20021;-77
2024/01/31 02:16:25;;;;;;;13.85;6.43;;;;;;;-3.73;64.00;95533.88;5043306;28;20275;-77
2024/01/31 02:18:51;;;;;;;18.38;8.00;;;;;;;-3.74;63.57;95547.91;5043328;28;20025;-77
2024/01/31 02:21:16;;;;;;;24.77;9.20;;;;;;;-3.81;63.75;95541.78;5043023;28;20252;-78
2024/01/31 02:23:42;;;;;;;26.83;9.00;;;;;;;-3.89;64.81;95541.88;5043251;28;20315;-78
2024/01/31 02:26:07;;;;;;;23.85;8.30;;;;;;;-3.93;65.16;95544.06;5043271;28;20021;-79
2024/01/31 02:28:33;;;;;;;23.65;9.07;;;;;;;-3.95;65.42;95540.00;5043480;28;20116;-79
2024/01/31 02:30:58;;;;;;;26.20;10.27;;;;;;;-3.97;66.06;95537.56;5043373;28;20043;-79
2024/01/31 02:33:23;;;;;;;24.65;9.95;;;;;;;-4.05;65.96;95528.09;5043036;28;20017;-78
2024/01/31 02:35:49;;;;;;;22.85;9.93;;;;;;;-4.11;66.51;95527.97;5042440;28;20024;-79
2024/01/31 02:38:14;;;;;;;22.23;9.85;;;;;;;-4.09;66.76;95531.22;5043104;28;20018;-77
2024/01/31 02:40:40;;;;;;;21.55;10.15;;;;;;;-4.09;66.70;95528.59;5041852;28;20055;-79
2024/01/31 02:43:05;;;;;;;22.83;10.55;;;;;;;-4.07;66.65;95524.84;5042599;28;20053;-79
2024/01/31 02:45:30;;;;;;;24.25;9.48;;;;;;;-4.07;66.43;95518.81;5042340;28;20092;-78
2024/01/31 02:47:56;;;;;;;31.55;9.85;;;;;;;-4.09;66.59;95520.78;5042365;28;20041;-79
2024/01/31 02:50:21;;;;;;;29.27;10.40;;;;;;;-4.09;66.61;95526.84;5041094;28;20084;-78
2024/01/31 02:52:48;;;;;;;30.48;10.77;;;;;;;-4.07;66.70;95526.63;5042384;28;20025;-78
2024/01/31 02:55:14;;;;;;;27.15;10.40;;;;;;;-4.11;66.33;95526.22;5042420;28;20025;-80
2024/01/31 02:57:39;;;;;;;24.73;9.18;;;;;;;-4.12;65.87;95518.56;5040920;28;20033;-79
2024/01/31 03:00:06;;;;;;;22.30;10.27;;;;;;;-4.18;66.21;95524.50;5042340;28;20052;-80
2024/01/31 03:02:32;;;;;;;32.03;11.07;;;;;;;-4.22;66.67;95529.25;5042532;28;20084;-80
2024/01/31 03:04:57;;;;;;;23.45;10.23;;;;;;;-4.20;66.78;95536.88;5042249;28;20029;-80
2024/01/31 03:07:23;;;;;;;23.70;9.15;;;;;;;-4.24;66.38;95531.22;5041041;28;20029;-80
2024/01/31 03:09:48;;;;;;;23.33;8.80;;;;;;;-4.32;67.14;95533.91;5041978;28;20021;-80
2024/01/31 03:12:13;;;;;;;25.65;10.25;;;;;;;-4.34;67.26;95520.28;5042696;28;20093;-80
2024/01/31 03:14:39;;;;;;;29.80;10.65;;;;;;;-4.32;67.28;95529.50;5045799;28;20033;-79
2024/01/31 03:17:04;;;;;;;21.80;10.23;;;;;;;-4.33;67.28;95520.09;5045878;28;20036;-79
2024/01/31 03:19:32;;;;;;;25.40;10.30;;;;;;;-4.39;67.42;95513.00;5045560;28;20135;-79
2024/01/31 03:21:58;;;;;;;21.25;10.05;;;;;;;-4.35;67.42;95514.28;5045517;28;20029;-80
2024/01/31 03:24:24;;;;;;;22.38;9.98;;;;;;;-4.29;67.05;95510.16;5045518;28;20103;-80
2024/01/31 03:26:49;;;;;;;27.48;10.38;;;;;;;-4.33;67.02;95516.69;5045455;28;20312;-80
2024/01/31 03:29:15;;;;;;;27.90;12.20;;;;;;;-4.42;67.44;95508.16;5045533;28;20223;-80
2024/01/31 03:31:40;;;;;;;27.95;10.57;;;;;;;-4.45;67.75;95504.13;5045378;28;20025;-80
2024/01/31 03:34:06;;;;;;;26.38;11.70;;;;;;;-4.42;67.75;95513.34;5045469;28;20091;-80
2024/01/31 03:36:35;;;;;;;27.70;11.23;;;;;;;-4.41;68.05;95514.19;5045535;28;20045;-78
2024/01/31 03:39:00;;;;;;;20.85;10.95;;;;;;;-4.47;68.20;95505.28;5045231;28;20223;-79
2024/01/31 03:41:27;;;;;;;30.15;11.77;;;;;;;-4.45;68.37;95513.72;5045156;28;20033;-78
2024/01/31 03:43:52;;;;;;;25.92;10.50;;;;;;;-4.51;68.17;95512.63;5045706;28;20017;-78
2024/01/31 03:46:18;;;;;;;28.95;12.35;;;;;;;-4.50;68.23;95516.88;5045412;28;20100;-78
2024/01/31 03:48:43;;;;;;;29.42;10.35;;;;;;;-4.51;68.51;95514.44;5045407;28;20068;-78
2024/01/31 03:51:22;;;;;;;25.02;10.95;;;;;;;-4.54;68.68;95515.63;5045515;28;20017;-78
2024/01/31 03:53:48;;;;;;;27.38;12.57;;;;;;;-4.55;69.04;95523.59;5045642;28;20328;-78
2024/01/31 03:56:14;;;;;;;32.95;11.70;;;;;;;-4.56;69.07;95520.19;5045474;28;20075;-79
2024/01/31 03:58:40;;;;;;;28.95;11.90;;;;;;;-4.64;69.13;95521.06;5045495;28;20024;-79
2024/01/31 04:01:06;;;;;;;40.08;13.30;;;;;;;-4.64;69.31;95528.03;5045463;28;20029;-79
2024/01/31 04:03:31;;;;;;;31.67;12.65;;;;;;;-4.61;69.56;95524.31;5045742;28;20028;-75
2024/01/31 04:05:57;;;;;;;37.42;12.65;;;;;;;-4.59;69.50;95522.34;5045328;28;20025;-75
2024/01/31 04:08:22;;;;;;;25.27;11.10;;;;;;;-4.60;69.61;95536.31;5045021;28;20033;-74
2024/01/31 04:10:47;;;;;;;32.10;12.13;;;;;;;-4.61;69.42;95532.91;5044871;28;20028;-74
2024/01/31 04:13:13;;;;;;;26.17;12.02;;;;;;;-4.69;69.34;95536.38;5044658;28;20034;-77
2024/01/31 04:15:39;;;;;;;34.95;13.10;;;;;;;-4.70;69.41;95532.19;5045061;28;20021;-77
2024/01/31 04:18:04;;;;;;;26.30;11.82;;;;;;;-4.66;69.23;95530.84;5045177;28;20025;-77
2024/01/31 04:20:30;;;;;;;31.83;11.82;;;;;;;-4.69;69.35;95538.19;5044840;28;20018;-77
2024/01/31 04:22:55;;;;;;;34.20;12.25;;;;;;;-4.65;69.25;95535.06;5044360;28;20263;-77
2024/01/31 04:25:21;;;;;;;34.17;12.80;;;;;;;-4.61;69.30;95532.09;5044528;28;20395;-77
2024/01/31 04:27:46;;;;;;;34.58;11.75;;;;;;;-4.63;68.96;95540.88;5044616;28;20017;-77
2024/01/31 04:30:12;;;;;;;29.92;12.30;;;;;;;-4.65;69.80;95540.25;5044802;28;20168;-77
2024/01/31 04:32:38;;;;;;;31.50;11.65;;;;;;;-4.61;69.88;95539.91;5044326;28;20037;-77
2024/01/31 04:35:07;;;;;;;32.22;12.48;;;;;;;-4.60;69.65;95537.13;5043355;28;20063;-76
2024/01/31 04:37:32;;;;;;;31.15;13.50;;;;;;;-4.64;70.20;95536.69;5044439;28;20339;-75
2024/01/31 04:39:58;;;;;;;29.83;12.48;;;;;;;-4.61;70.14;95548.53;5044166;28;20112;-76
2024/01/31 04:42:23;;;;;;;24.85;11.13;;;;;;;-4.62;70.35;95549.50;5044129;28;20331;-77
2024/01/31 04:44:48;;;;;;;26.02;11.90;;;;;;;-4.64;70.48;95536.69;5044012;28;20044;-77
2024/01/31 04:47:14;;;;;;;29.63;13.13;;;;;;;-4.64;70.30;95541.88;5044023;28;20058;-77
2024/01/31 04:49:39;;;;;;;36.83;13.18;;;;;;;-4.77;70.38;95527.84;5044114;28;20677;-78
2024/01/31 04:52:05;;;;;;;28.02;12.27;;;;;;;-4.78;70.51;95531.44;5044433;28;20017;-78
2024/01/31 04:54:30;;;;;;;31.88;13.10;;;;;;;-4.76;70.72;95527.69;5043560;28;20251;-78
2024/01/31 04:56:56;;;;;;;31.40;12.85;;;;;;;-4.70;70.25;95532.19;5043569;28;20040;-76
2024/01/31 04:59:21;;;;;;;32.75;12.65;;;;;;;-4.69;70.45;95523.38;5042474;28;20068;-76
2024/01/31 05:01:47;;;;;;;45.65;15.60;;;;;;;-4.71;69.62;95520.16;5043794;28;20037;-77
2024/01/31 05:04:12;;;;;;;48.35;17.35;;;;;;;-4.67;68.75;95516.22;5043738;28;20072;-76
2024/01/31 05:06:37;;;;;;;50.83;17.70;;;;;;;-4.65;68.02;95519.44;5043733;28;20025;-77
2024/01/31 05:09:03;;;;;;;47.15;16.98;;;;;;;-4.61;67.86;95519.91;5043816;28;20092;-76
2024/01/31 05:11:28;;;;;;;59.10;17.52;;;;;;;-4.59;67.37;95517.13;5043653;28;20021;-76
2024/01/31 05:13:54;;;;;;;52.08;18.30;;;;;;;-4.59;67.24;95527.53;5043425;28;20253;-77
2024/01/31 05:16:19;;;;;;;45.42;15.18;;;;;;;-4.60;67.10;95526.69;5043557;28;20193;-77
2024/01/31 05:18:44;;;;;;;43.20;15.70;;;;;;;-4.61;67.23;95516.50;5043615;28;20043;-77
2024/01/31 05:21:10;;;;;;;45.10;16.33;;;;;;;-4.62;66.71;95518.28;5043047;28;20052;-77
2024/01/31 05:23:37;;;;;;;36.78;13.32;;;;;;;-4.62;66.47;95531.28;5043558;28;20071;-76
2024/01/31 05:26:09;;;;;;;41.63;14.45;;;;;;;-4.72;66.82;95533.31;5043462;28;20259;-76
2024/01/31 05:28:36;;;;;;;33.22;13.70;;;;;;;-4.73;67.92;95532.53;5043311;28;20079;-75
2024/01/31 05:31:03;;;;;;;37.55;14.60;;;;;;;-4.75;68.88;95538.91;5043121;28;20025;-74
2024/01/31 05:33:29;;;;;;;41.22;15.13;;;;;;;-4.78;69.58;95539.22;5043361;28;20025;-76
2024/01/31 05:35:54;;;;;;;35.25;14.38;;;;;;;-4.77;70.00;95540.88;5042759;28;20032;-76
2024/01/31 05:38:20;;;;;;;30.70;12.88;;;;;;;-4.81;70.17;95544.81;5043131;28;20048;-76
2024/01/31 05:40:45;;;;;;;40.85;12.52;;;;;;;-4.75;70.13;95546.69;5042927;28;20249;-75
2024/01/31 05:43:11;;;;;;;34.10;12.68;;;;;;;-4.75;70.44;95550.09;5042982;28;20028;-75
2024/01/31 05:45:37;;;;;;;30.20;10.75;;;;;;;-4.76;70.28;95550.28;5043237;28;20333;-76
2024/01/31 05:48:03;;;;;;;31.60;12.68;;;;;;;-4.78;70.18;95555.69;5043264;28;20025;-76
2024/01/31 05:50:28;;;;;;;21.50;10.43;;;;;;;-4.72;70.29;95562.78;5043123;28;20313;-76
2024/01/31 05:52:54;;;;;;;33.13;12.90;;;;;;;-4.79;70.32;95559.25;5043003;28;20032;-76
2024/01/31 05:55:19;;;;;;;34.25;13.20;;;;;;;-4.84;70.82;95562.38;5042934;28;20219;-76
2024/01/31 05:57:49;;;;;;;26.55;11.48;;;;;;;-4.89;70.84;95562.09;5042906;28;20021;-75
2024/01/31 06:00:15;;;;;;;43.15;12.82;;;;;;;-4.91;71.29;95558.03;5042809;28;20041;-75
2024/01/31 06:02:40;;;;;;;29.73;12.25;;;;;;;-4.92;71.38;95559.03;5042633;28;20296;-75
2024/01/31 06:05:06;;;;;;;30.42;11.93;;;;;;;-4.92;71.72;95564.25;5042991;28;20063;-77
2024/01/31 06:07:31;;;;;;;27.05;11.65;;;;;;;-4.89;71.58;95572.50;5042798;28;20017;-77
2024/01/31 06:09:57;;;;;;;29.75;11.35;;;;;;;-4.90;71.76;95563.09;5042912;28;20063;-77
2024/01/31 06:12:22;;;;;;;33.63;14.45;;;;;;;-4.89;71.81;95569.09;5042607;28;20093;-77
2024/01/31 06:14:48;;;;;;;26.48;11.70;;;;;;;-4.89;71.93;95558.69;5042742;28;20024;-76
2024/01/31 06:17:14;;;;;;;34.60;13.38;;;;;;;-4.87;71.93;95561.91;5042731;28;20032;-78
2024/01/31 06:19:40;;;;;;;30.80;13.63;;;;;;;-4.89;72.35;95559.47;5042617;28;20259;-78
2024/01/31 06:22:07;;;;;;;37.05;13.75;;;;;;;-4.83;72.14;95557.97;5042535;28;20017;-78
2024/01/31 06:24:32;;;;;;;36.22;14.25;;;;;;;-4.79;72.44;95559.25;5042302;28;20251;-76
2024/01/31 06:26:58;;;;;;;30.58;13.10;;;;;;;-4.70;72.30;95558.22;5042523;28;20025;-79
2024/01/31 06:29:23;;;;;;;35.10;13.77;;;;;;;-4.70;72.24;95558.22;5042458;28;20132;-77
2024/01/31 06:31:51;;;;;;;39.10;15.23;;;;;;;-4.64;72.47;95557.50;5042497;28;20041;-77
2024/01/31 06:34:16;;;;;;;34.50;13.02;;;;;;;-4.60;72.27;95557.13;5042228;28;20045;-75
2024/01/31 06:36:43;;;;;;;31.40;14.50;;;;;;;-4.54;72.18;95552.06;5042294;28;20096;-77
2024/01/31 06:39:11;;;;;;;41.03;14.88;;;;;;;-4.45;71.78;95558.78;5041248;28;20223;-76
2024/01/31 06:41:37;;;;;;;36.22;14.77;;;;;;;-4.39;71.75;95564.28;5042071;28;20049;-76
2024/01/31 06:44:03;;;;;;;45.50;16.20;;;;;;;-4.35;71.59;95571.53;5042497;28;20022;-77
2024/01/31 06:46:29;;;;;;;39.53;15.57;;;;;;;-4.34;71.63;95567.94;5042934;28;20048;-76
2024/01/31 06:48:55;;;;;;;48.83;16.80;;;;;;;-4.29;71.78;95570.81;5046419;28;20037;-77
2024/01/31 06:51:20;;;;;;;42.65;16.83;;;;;;;-4.24;71.46;95565.88;5045848;28;20021;-76
2024/01/31 06:53:47;;;;;;;37.30;14.20;;;;;;;-4.20;71.06;95570.75;5045976;28;20021;-78
2024/01/31 06:56:17;;;;;;;34.63;14.40;;;;;;;-4.18;71.49;95568.75;5045894;28;20259;-80
2024/01/31 06:58:51;;;;;;;42.80;15.38;;;;;;;-4.12;71.32;95565.44;5046094;28;20034;-81
2024/01/31 07:01:17;;;;;;;41.65;15.25;;;;;;;-4.09;70.86;95559.88;5045929;28;20028;-79
2024/01/31 07:03:44;;;;;;;45.10;15.35;;;;;;;-4.02;70.86;95558.16;5046244;28;20021;-79
2024/01/31 07:06:11;;;;;;;41.72;15.98;;;;;;;-3.98;70.81;95562.03;5045775;28;20100;-78
2024/01/31 07:08:37;;;;;;;48.88;16.63;;;;;;;-3.96;70.79;95554.84;5045722;28;20388;-78
2024/01/31 07:11:07;;;;;;;47.42;16.23;;;;;;;-3.94;71.17;95557.28;5044630;28;20220;-78
2024/01/31 07:13:33;;;;;;;40.53;18.13;;;;;;;-3.87;70.89;95553.78;5044753;28;20259;-80
2024/01/31 07:15:58;;;;;;;46.47;19.13;;;;;;;-3.83;70.85;95547.22;5045439;28;20091;-78
2024/01/31 07:18:23;;;;;;;47.03;17.70;;;;;;;-3.76;70.46;95556.91;5045699;28;20335;-80
2024/01/31 07:20:49;;;;;;;43.95;18.27;;;;;;;-3.75;70.78;95556.69;5045735;28;20017;-80
2024/01/31 07:23:14;;;;;;;46.17;17.15;;;;;;;-3.69;70.33;95557.78;5045345;28;20033;-78
2024/01/31 07:25:40;;;;;;;53.08;19.75;;;;;;;-3.74;71.02;95558.31;5045617;28;20096;-79
2024/01/31 07:28:05;;;;;;;48.08;19.92;;;;;;;-3.69;71.22;95552.56;5045614;28;20366;-79
2024/01/31 07:30:31;;;;;;;48.80;19.38;;;;;;;-3.63;71.48;95564.88;5045762;28;20009;-77
2024/01/31 07:32:56;;;;;;;50.10;20.65;;;;;;;-3.66;71.54;95560.84;5045287;28;20017;-78
2024/01/31 07:35:24;;;;;;;57.20;18.95;;;;;;;-3.75;71.07;95569.72;5045683;28;20017;-79
2024/01/31 07:37:50;;;;;;;46.40;20.75;;;;;;;-3.68;71.13;95549.78;5045293;28;20021;-78
2024/01/31 07:40:15;;;;;;;58.25;20.60;;;;;;;-3.64;71.14;95555.44;5045329;28;20048;-76
2024/01/31 07:42:41;;;;;;;48.90;19.58;;;;;;;-3.68;71.23;95548.97;5045586;28;20025;-78
2024/01/31 07:45:06;;;;;;;48.35;19.73;;;;;;;-3.64;71.58;95552.84;5045274;28;20323;-78
2024/01/31 07:47:32;;;;;;;50.13;19.85;;;;;;;-3.52;71.35;95551.38;5045305;28;20323;-77
2024/01/31 07:49:57;;;;;;;45.08;19.67;;;;;;;-3.41;71.24;95557.91;5043445;28;20304;-77
2024/01/31 07:52:23;;;;;;;52.72;21.00;;;;;;;-3.36;71.05;95552.13;5043900;28;20018;-78
2024/01/31 07:54:48;;;;;;;52.58;21.42;;;;;;;-3.26;71.08;95555.22;5044708;28;20029;-80
2024/01/31 07:57:13;;;;;;;59.58;21.20;;;;;;;-3.16;70.89;95549.72;5044736;28;20322;-80
2024/01/31 07:59:39;;;;;;;50.05;20.30;;;;;;;-3.10;70.14;95544.56;5044897;28;20028;-83
2024/01/31 08:02:04;;;;;;;52.00;21.13;;;;;;;-3.02;70.11;95539.22;5044996;28;20323;-81
2024/01/31 08:04:30;;;;;;;44.35;19.88;;;;;;;-2.92;69.62;95540.72;5044866;28;20088;-79
2024/01/31 08:06:55;;;;;;;57.33;22.25;;;;;;;-2.84;69.19;95544.00;5044918;28;20041;-78
2024/01/31 08:09:22;;;;;;;60.40;22.25;;;;;;;-2.71;69.13;95538.06;5044707;28;20036;-78
2024/01/31 08:11:48;;;;;;;48.42;19.48;;;;;;;-2.59;69.08;95540.19;5044854;28;20097;-77
2024/01/31 08:14:13;;;;;;;45.45;19.95;;;;;;;-2.51;68.59;95535.63;5044908;28;20025;-77
2024/01/31 08:16:39;;;;;;;52.10;21.73;;;;;;;-2.41;68.35;95532.66;5044818;28;20023;-77
2024/01/31 08:19:04;;;;;;;49.13;20.10;;;;;;;-2.31;67.12;95546.19;5044642;28;20116;-75
2024/01/31 08:21:33;;;;;;;66.82;22.38;;;;;;;-2.29;67.53;95533.75;5044279;28;20029;-75
2024/01/31 08:23:59;;;;;;;61.22;22.83;;;;;;;-2.24;67.64;95536.63;5043128;28;20045;-75
2024/01/31 08:26:24;;;;;;;48.22;20.63;;;;;;;-2.21;67.13;95545.88;5044340;28;20373;-75
2024/01/31 08:28:50;;;;;;;53.00;20.23;;;;;;;-2.17;66.83;95533.25;5044299;28;20059;-75
2024/01/31 08:31:15;;;;;;;48.90;19.92;;;;;;;-2.16;66.81;95538.25;5044155;28;20029;-74
2024/01/31 08:33:41;;;;;;;52.17;21.17;;;;;;;-2.04;66.48;95528.06;5044152;28;20025;-75
2024/01/31 08:36:08;;;;;;;49.38;19.75;;;;;;;-2.06;67.06;95530.06;5044102;28;20017;-75
2024/01/31 08:38:34;;;;;;;43.30;17.95;;;;;;;-2.04;66.15;95528.06;5043049;28;20075;-74
2024/01/31 08:41:00;;;;;;;41.17;19.15;;;;;;;-1.98;66.26;95522.06;5044140;28;20025;-75
2024/01/31 08:43:25;;;;;;;45.72;18.42;;;;;;;-1.93;65.86;95524.91;5043791;28;20104;-74
2024/01/31 08:45:52;;;;;;;45.58;18.52;;;;;;;-1.90;66.38;95528.94;5044001;28;20362;-69
2024/01/31 08:48:18;;;;;;;40.22;18.85;;;;;;;-1.85;66.97;95519.53;5044223;28;20025;-73
2024/01/31 08:50:43;;;;;;;49.88;21.30;;;;;;;-1.71;67.63;95520.41;5043784;28;20025;-65
2024/01/31 08:53:09;;;;;;;49.15;19.45;;;;;;;-1.66;67.18;95519.81;5043489;28;20312;-71
2024/01/31 08:55:35;;;;;;;39.85;18.98;;;;;;;-1.48;66.49;95514.03;5043906;28;20745;-73
2024/01/31 08:58:00;;;;;;;46.50;18.55;;;;;;;-1.28;65.29;95512.28;5043837;28;20025;-72
2024/01/31 09:00:29;;;;;;;46.90;19.67;;;;;;;-1.25;64.77;95503.22;5043605;28;20041;-72
2024/01/31 09:02:55;;;;;;;50.03;18.02;;;;;;;-1.14;64.47;95502.63;5043659;28;20093;-72
2024/01/31 09:05:20;;;;;;;38.78;19.30;;;;;;;-1.05;63.35;95503.25;5043581;28;20297;-72
2024/01/31 09:07:46;;;;;;;41.53;17.38;;;;;;;-1.09;63.46;95499.41;5043759;28;20036;-72
2024/01/31 09:10:11;;;;;;;41.60;18.20;;;;;;;-1.08;63.14;95496.59;5043065;28;20017;-73
2024/01/31 09:12:37;;;;;;;49.95;18.58;;;;;;;-0.92;63.52;95492.78;5043697;28;20025;-74
2024/01/31 09:15:02;;;;;;;42.03;17.92;;;;;;;-0.76;62.84;95486.34;5043736;28;20246;-73
2024/01/31 09:17:28;;;;;;;46.55;19.80;;;;;;;-0.65;62.52;95480.50;5043554;28;20355;-73
2024/01/31 09:19:53;;;;;;;49.53;19.73;;;;;;;-0.62;62.35;95480.06;5043334;28;20096;-73
2024/01/31 09:22:19;;;;;;;53.45;18.38;;;;;;;-0.58;62.44;95477.06;5043423;28;20033;-73
2024/01/31 09:24:44;;;;;;;53.95;19.45;;;;;;;-0.47;62.31;95473.81;5042863;28;20112;-73
2024/01/31 09:27:10;;;;;;;47.53;20.10;;;;;;;-0.35;61.91;95474.00;5043479;28;20094;-74
2024/01/31 09:29:35;;;;;;;43.22;19.38;;;;;;;-0.28;61.31;95474.81;5043338;28;20378;-72
2024/01/31 09:32:02;;;;;;;40.17;19.02;;;;;;;-0.16;61.12;95461.84;5043370;28;20251;-73
2024/01/31 09:34:28;;;;;;;41.70;18.85;;;;;;;-0.10;60.82;95450.53;5043122;28;20227;-73
2024/01/31 09:36:54;;;;;;;47.78;18.08;;;;;;;-0.17;61.08;95458.44;5043133;28;20025;-73
2024/01/31 09:39:19;;;;;;;42.63;18.40;;;;;;;-0.14;60.96;95460.66;5043200;28;20255;-73
2024/01/31 09:41:45;;;;;;;43.80;19.08;;;;;;;-0.04;60.36;95444.47;5043057;28;20067;-73
2024/01/31 09:44:11;;;;;;;54.85;19.15;;;;;;;0.11;60.74;95438.97;5043014;28;20327;-73
2024/01/31 09:46:40;;;;;;;41.55;19.80;;;;;;;0.15;60.32;95435.72;5043204;28;20029;-73
2024/01/31 09:49:05;;;;;;;36.75;18.70;;;;;;;0.21;60.37;95444.59;5042912;28;20029;-73
2024/01/31 09:51:32;;;;;;;48.53;21.17;;;;;;;0.34;59.81;95433.22;5043074;28;20017;-73
2024/01/31 09:53:59;;;;;;;54.75;20.88;;;;;;;0.46;59.82;95436.78;5042784;28;20025;-73
2024/01/31 09:56:27;;;;;;;42.65;19.17;;;;;;;0.70;59.31;95429.16;5042918;28;20033;-73
2024/01/31 09:58:55;;;;;;;56.15;22.30;;;;;;;0.83;57.31;95426.44;5042785;28;20037;-73
2024/01/31 10:01:23;;;;;;;45.47;20.10;;;;;;;0.88;57.66;95424.00;5042477;28;20037;-73
2024/01/31 10:03:48;;;;;;;46.38;19.95;;;;;;;1.00;56.93;95418.84;5042812;28;20029;-74
2024/01/31 10:06:14;;;;;;;48.70;20.23;;;;;;;1.10;56.56;95411.28;5042800;28;20032;-74
2024/01/31 10:08:39;;;;;;;44.20;19.85;;;;;;;1.24;55.69;95404.06;5042699;28;20051;-75
2024/01/31 10:11:06;;;;;;;50.97;19.15;;;;;;;1.29;55.63;95399.00;5042878;28;20025;-73
2024/01/31 10:13:31;;;;;;;50.30;19.90;;;;;;;1.40;55.40;95397.47;5041597;28;20104;-73
2024/01/31 10:15:57;;;;;;;63.70;23.05;;;;;;;1.49;54.71;95405.88;5042736;28;20359;-73
2024/01/31 10:18:27;;;;;;;47.95;21.20;;;;;;;1.58;53.99;95394.84;5042702;28;20147;-73
2024/01/31 10:20:52;;;;;;;55.35;22.33;;;;;;;1.65;53.70;95389.53;5043942;28;20037;-74
2024/01/31 10:23:19;;;;;;;44.70;21.17;;;;;;;1.73;54.43;95394.50;5046304;28;20097;-73
2024/01/31 10:25:44;;;;;;;47.80;21.08;;;;;;;1.86;53.54;95387.47;5046630;28;20025;-73
2024/01/31 10:28:10;;;;;;;39.55;19.83;;;;;;;1.94;52.86;95377.47;5046539;28;20295;-73
2024/01/31 10:30:45;;;;;;;54.05;22.30;;;;;;;2.00;52.42;95379.19;5046606;28;20089;-73
2024/01/31 10:33:11;;;;;;;51.28;21.55;;;;;;;2.13;52.59;95372.16;5045034;28;20169;-73
2024/01/31 10:35:39;;;;;;;41.83;18.48;;;;;;;2.26;51.25;95373.81;5046171;28;20105;-74
2024/01/31 10:38:05;;;;;;;51.05;19.98;;;;;;;2.20;50.42;95365.78;5046321;28;20030;-73
2024/01/31 10:41:08;;;;;;;41.08;20.38;;;;;;;2.40;49.56;95355.00;5046394;28;20036;-73
2024/01/31 10:43:34;;;;;;;45.90;18.85;;;;;;;2.51;48.03;95356.03;5004168;28;20053;-73
2024/01/31 10:46:00;;;;;;;44.15;18.38;;;;;;;2.62;47.36;95357.09;5037330;28;20049;-73
2024/01/31 10:48:26;;;;;;;43.03;18.35;;;;;;;2.73;48.50;95342.38;5046077;28;20024;-73
2024/01/31 10:50:54;;;;;;;50.63;18.63;;;;;;;2.91;47.40;95344.06;5046367;28;20243;-73
2024/01/31 10:53:23;;;;;;;37.60;18.67;;;;;;;3.05;46.74;95334.91;5046175;28;20104;-76
2024/01/31 10:55:51;;;;;;;43.28;18.88;;;;;;;3.15;46.86;95339.63;5045913;28;20316;-70
2024/01/31 10:58:16;;;;;;;40.80;18.85;;;;;;;3.30;45.85;95332.06;5045928;28;20017;-73
2024/01/31 11:00:48;;;;;;;44.65;19.25;;;;;;;3.37;45.30;95327.44;5046263;28;20250;-71
2024/01/31 11:03:15;;;;;;;;;;;;;;;3.46;44.64;95322.66;5046235;28;20040;-75
2024/01/31 11:05:41;;;;;;;41.70;16.13;;;;;;;3.46;44.64;95325.28;5046054;28;19905;-71
2024/01/31 11:08:17;;;;;;;35.20;17.05;;;;;;;3.55;44.43;95323.09;5045943;28;20026;-71
2024/01/31 11:10:42;;;;;;;42.85;18.17;;;;;;;3.60;44.20;95315.25;5045925;28;20044;-71
2024/01/31 11:13:09;;;;;;;49.25;18.38;;;;;;;3.70;43.54;95304.91;5045729;28;20059;-72